createdAt,value
2022-08-07T00:00:39.991Z,69.46
2022-08-07T00:03:08.702Z,69.88
2022-08-07T00:05:37.051Z,69.73
2022-08-07T00:08:04.941Z,69.98
2022-08-07T00:10:31.837Z,69.86
2022-08-07T00:13:03.203Z,70.20
2022-08-07T00:15:46.829Z,70.34
2022-08-07T00:18:24.472Z,70.40
2022-08-07T00:20:57.498Z,69.97
2022-08-07T00:23:30.201Z,70.14
2022-08-07T00:26:00.646Z,70.00
2022-08-07T00:28:34.025Z,70.36
2022-08-07T00:31:12.356Z,70.63
2022-08-07T00:33:43.314Z,69.68
2022-08-07T00:36:13.970Z,70.22
2022-08-07T00:38:40.510Z,70.38
2022-08-07T00:41:10.036Z,70.81
2022-08-07T00:43:59.315Z,70.38
2022-08-07T00:46:28.100Z,71.35
2022-08-07T00:48:54.543Z,71.29
2022-08-07T00:51:21.555Z,71.80
2022-08-07T00:53:50.721Z,71.36
2022-08-07T00:56:22.968Z,71.76
2022-08-07T00:58:49.777Z,71.67
2022-08-07T01:01:18.464Z,71.65
2022-08-07T01:03:55.801Z,72.16
2022-08-07T01:06:28.442Z,71.83
2022-08-07T01:08:58.381Z,71.53
2022-08-07T01:12:09.584Z,71.43
2022-08-07T01:14:15.600Z,71.97
2022-08-07T01:16:47.184Z,71.01
2022-08-07T01:19:18.768Z,72.00
2022-08-07T01:21:48.085Z,71.92
2022-08-07T01:24:21.260Z,71.81
2022-08-07T01:26:52.282Z,72.39
2022-08-07T01:29:22.341Z,72.77
2022-08-07T01:31:49.620Z,72.01
2022-08-07T01:34:17.983Z,71.52
2022-08-07T01:36:52.490Z,72.39
2022-08-07T01:39:41.323Z,72.69
2022-08-07T01:42:38.884Z,72.27
2022-08-07T01:45:03.005Z,72.49
2022-08-07T01:48:19.024Z,72.92
2022-08-07T01:50:16.576Z,72.77
2022-08-07T01:52:54.447Z,73.33
2022-08-07T01:55:26.940Z,73.59
2022-08-07T01:58:05.442Z,73.43
2022-08-07T02:00:50.106Z,73.30
2022-08-07T02:03:24.925Z,73.34
2022-08-07T02:05:59.828Z,73.26
2022-08-07T02:08:30.518Z,73.16
2022-08-07T02:10:59.996Z,73.33
2022-08-07T02:13:56.470Z,73.30
2022-08-07T02:16:19.867Z,73.13
2022-08-07T02:18:47.851Z,73.51
2022-08-07T02:21:16.626Z,73.03
2022-08-07T02:23:44.840Z,72.91
2022-08-07T02:26:33.994Z,73.61
2022-08-07T02:29:02.258Z,73.67
2022-08-07T02:31:32.729Z,73.04
2022-08-07T02:34:10.908Z,73.44
2022-08-07T02:36:39.333Z,73.53
2022-08-07T02:39:16.153Z,74.24
2022-08-07T02:41:54.190Z,74.03
2022-08-07T02:44:21.391Z,74.25
2022-08-07T02:46:52.697Z,75.24
2022-08-07T02:49:29.158Z,74.28
2022-08-07T02:52:10.027Z,74.76
2022-08-07T02:54:42.703Z,75.00
2022-08-07T02:57:13.537Z,75.18
2022-08-07T02:59:45.635Z,74.82
2022-08-07T03:02:22.590Z,74.46
2022-08-07T03:04:51.496Z,74.86
2022-08-07T03:07:21.531Z,74.93
2022-08-07T03:10:06.417Z,74.08
2022-08-07T03:12:36.562Z,74.94
2022-08-07T03:15:07.484Z,74.90
2022-08-07T03:17:53.283Z,75.20
2022-08-07T03:20:22.038Z,74.76
2022-08-07T03:22:50.581Z,75.21
2022-08-07T03:25:21.162Z,74.50
2022-08-07T03:28:08.961Z,75.15
2022-08-07T03:30:36.185Z,75.29
2022-08-07T03:33:04.810Z,75.37
2022-08-07T03:35:43.796Z,75.54
2022-08-07T03:38:21.438Z,75.50
2022-08-07T03:40:57.716Z,75.89
2022-08-07T03:43:26.612Z,75.63
2022-08-07T03:45:53.640Z,75.49
2022-08-07T03:48:20.487Z,75.75
2022-08-07T03:50:55.758Z,75.90
2022-08-07T03:54:00.644Z,75.79
2022-08-07T03:56:11.191Z,76.15
2022-08-07T03:59:08.102Z,76.06
2022-08-07T04:01:28.891Z,76.24
2022-08-07T04:03:55.702Z,75.77
2022-08-07T04:06:37.577Z,75.93
2022-08-07T04:09:05.897Z,76.53
2022-08-07T04:12:23.771Z,76.16
2022-08-07T04:14:37.061Z,76.30
2022-08-07T04:17:19.928Z,76.40
2022-08-07T04:19:52.254Z,76.43
2022-08-07T04:22:23.901Z,76.14
2022-08-07T04:24:55.886Z,75.68
2022-08-07T04:27:25.806Z,76.01
2022-08-07T04:30:01.588Z,76.62
2022-08-07T04:32:34.260Z,76.20
2022-08-07T04:35:05.609Z,76.36
2022-08-07T04:37:52.825Z,76.53
2022-08-07T04:40:20.480Z,76.44
2022-08-07T04:42:47.053Z,76.61
2022-08-07T04:45:52.147Z,76.65
2022-08-07T04:48:12.873Z,76.55
2022-08-07T04:51:09.118Z,76.67
2022-08-07T04:54:05.669Z,76.88
2022-08-07T04:58:10.247Z,76.51
2022-08-07T05:00:09.838Z,77.00
2022-08-07T05:03:16.830Z,77.41
2022-08-07T05:06:20.154Z,77.52
2022-08-07T05:09:08.120Z,76.98
2022-08-07T05:11:57.348Z,77.16
2022-08-07T05:14:56.533Z,77.65
2022-08-07T05:17:52.900Z,77.03
2022-08-07T05:20:13.735Z,76.54
2022-08-07T05:22:42.112Z,77.26
2022-08-07T05:25:25.901Z,77.58
2022-08-07T05:28:02.575Z,77.79
2022-08-07T05:30:44.575Z,77.95
2022-08-07T05:33:15.113Z,77.94
2022-08-07T05:35:45.535Z,79.56
2022-08-07T05:39:01.382Z,79.66
2022-08-07T05:41:02.538Z,78.88
2022-08-07T05:44:01.567Z,78.41
2022-08-07T05:46:29.502Z,79.54
2022-08-07T05:48:59.533Z,77.37
2022-08-07T05:51:26.392Z,77.39
2022-08-07T05:54:12.867Z,75.76
2022-08-07T05:56:47.849Z,76.37
2022-08-07T05:59:19.656Z,74.92
2022-08-07T06:01:49.496Z,72.05
2022-08-07T06:04:19.636Z,70.11
2022-08-07T06:06:47.611Z,67.13
2022-08-07T06:09:23.478Z,64.88
2022-08-07T06:12:10.347Z,63.72
2022-08-07T06:14:39.562Z,62.48
2022-08-07T06:17:07.214Z,64.34
2022-08-07T06:19:52.038Z,66.63
2022-08-07T06:22:24.162Z,67.58
2022-08-07T06:24:58.442Z,68.66
2022-08-07T06:27:44.093Z,69.42
2022-08-07T06:30:24.381Z,69.89
2022-08-07T06:33:02.325Z,69.87
2022-08-07T06:35:38.933Z,69.78
2022-08-07T06:38:19.979Z,68.99
2022-08-07T06:40:50.152Z,68.77
2022-08-07T06:43:22.154Z,69.21
2022-08-07T06:45:49.235Z,69.21
2022-08-07T06:48:16.118Z,68.18
2022-08-07T06:50:52.923Z,68.06
2022-08-07T06:54:12.161Z,67.18
2022-08-07T06:56:15.165Z,66.75
2022-08-07T07:00:11.568Z,66.75
2022-08-07T07:01:43.735Z,66.52
2022-08-07T07:04:28.178Z,66.17
2022-08-07T07:07:02.378Z,66.99
2022-08-07T07:09:38.198Z,65.87
2022-08-07T07:12:15.599Z,66.33
2022-08-07T07:15:04.789Z,65.41
2022-08-07T07:17:54.765Z,64.35
2022-08-07T07:20:32.029Z,64.60
2022-08-07T07:24:08.947Z,62.43
2022-08-07T07:26:34.728Z,62.17
2022-08-07T07:29:38.408Z,63.49
2022-08-07T07:31:44.502Z,62.41
2022-08-07T07:34:19.694Z,60.62
2022-08-07T07:36:53.839Z,62.01
2022-08-07T07:39:22.823Z,61.57
2022-08-07T07:42:08.930Z,62.06
2022-08-07T07:44:43.984Z,60.71
2022-08-07T07:47:14.335Z,59.81
2022-08-07T07:50:33.876Z,60.62
2022-08-07T07:52:39.935Z,58.82
2022-08-07T07:55:09.099Z,59.99
2022-08-07T07:57:50.464Z,58.75
2022-08-07T08:00:29.400Z,58.41
2022-08-07T08:03:16.645Z,59.14
2022-08-07T08:05:58.513Z,58.99
2022-08-07T08:08:37.011Z,57.85
2022-08-07T08:11:13.516Z,57.98
2022-08-07T08:13:53.281Z,57.02
2022-08-07T08:16:29.914Z,56.96
2022-08-07T08:18:58.243Z,57.03
2022-08-07T08:21:56.929Z,56.91
2022-08-07T08:25:03.242Z,56.75
2022-08-07T08:27:43.958Z,56.35
2022-08-07T08:30:23.377Z,55.50
2022-08-07T08:32:59.085Z,56.70
2022-08-07T08:35:28.700Z,55.56
2022-08-07T08:38:04.598Z,54.85
2022-08-07T08:40:52.265Z,54.72
2022-08-07T08:43:42.137Z,54.00
2022-08-07T08:46:16.928Z,54.13
2022-08-07T08:49:07.106Z,55.25
2022-08-07T08:52:00.939Z,53.24
2022-08-07T08:54:46.098Z,53.74
2022-08-07T08:57:40.113Z,53.07
2022-08-07T09:00:09.228Z,54.47
2022-08-07T09:02:43.744Z,53.48
2022-08-07T09:05:37.503Z,51.90
2022-08-07T09:08:17.875Z,51.62
2022-08-07T09:11:24.226Z,51.68
2022-08-07T09:14:14.768Z,51.32
2022-08-07T09:16:47.663Z,50.48
2022-08-07T09:19:50.712Z,50.98
2022-08-07T09:24:31.522Z,50.28
2022-08-07T09:25:54.280Z,50.38
2022-08-07T09:30:03.127Z,51.93
2022-08-07T09:31:54.834Z,50.23
2022-08-07T09:34:27.657Z,51.07
2022-08-07T09:37:12.352Z,51.86
2022-08-07T09:40:05.918Z,49.92
2022-08-07T09:42:58.641Z,50.23
2022-08-07T09:47:49.765Z,49.35
2022-08-07T09:50:00.801Z,49.39
2022-08-07T09:52:33.380Z,48.59
2022-08-07T09:55:28.943Z,48.76
2022-08-07T09:58:32.907Z,47.81
2022-08-07T10:01:50.559Z,47.34
2022-08-07T10:04:47.720Z,48.61
2022-08-07T10:07:52.626Z,49.16
2022-08-07T10:10:28.279Z,47.52
2022-08-07T10:13:55.623Z,46.90
2022-08-07T10:16:16.001Z,46.39
2022-08-07T10:19:03.629Z,45.65
2022-08-07T10:22:16.333Z,45.35
2022-08-07T10:24:51.021Z,44.71
2022-08-07T10:27:47.652Z,45.72
2022-08-07T10:30:20.065Z,44.49
2022-08-07T10:34:06.797Z,44.66
2022-08-07T10:36:36.350Z,43.75
2022-08-07T10:39:41.928Z,43.69
2022-08-07T10:42:38.667Z,44.06
2022-08-07T10:45:44.964Z,45.53
2022-08-07T10:48:35.443Z,43.93
2022-08-07T10:51:39.568Z,43.75
2022-08-07T10:54:18.443Z,43.77
2022-08-07T10:56:54.545Z,42.19
2022-08-07T10:59:45.386Z,44.10
2022-08-07T11:02:34.128Z,42.28
2022-08-07T11:05:24.129Z,41.68
2022-08-07T11:08:02.601Z,41.70
2022-08-07T11:10:39.513Z,42.64
2022-08-07T11:14:42.332Z,42.34
2022-08-07T11:16:34.045Z,42.33
2022-08-07T11:19:21.654Z,42.03
2022-08-07T11:22:18.819Z,42.52
2022-08-07T11:25:07.281Z,41.56
2022-08-07T11:28:01.472Z,40.83
2022-08-07T11:30:57.909Z,41.28
2022-08-07T11:33:59.112Z,40.47
2022-08-07T11:37:11.584Z,41.41
2022-08-07T11:40:00.261Z,40.87
2022-08-07T11:42:59.812Z,40.92
2022-08-07T11:45:53.553Z,40.93
2022-08-07T11:49:50.884Z,41.19
2022-08-07T11:52:01.814Z,39.51
2022-08-07T11:54:38.699Z,38.39
2022-08-07T11:57:24.990Z,40.17
2022-08-07T12:00:30.967Z,39.23
2022-08-07T12:03:41.538Z,39.46
2022-08-07T12:06:39.110Z,40.03
2022-08-07T12:09:34.081Z,40.01
2022-08-07T12:12:18.730Z,38.99
2022-08-07T12:15:00.466Z,38.62
2022-08-07T12:17:37.271Z,38.55
2022-08-07T12:20:20.935Z,37.51
2022-08-07T12:23:16.431Z,40.66
2022-08-07T12:26:23.113Z,39.60
2022-08-07T12:29:11.778Z,39.09
2022-08-07T12:32:05.114Z,36.79
2022-08-07T12:34:36.981Z,37.05
2022-08-07T12:37:08.257Z,38.19
2022-08-07T12:39:50.564Z,37.98
2022-08-07T12:42:27.251Z,36.54
2022-08-07T12:44:58.383Z,36.85
2022-08-07T12:47:37.514Z,37.52
2022-08-07T12:50:34.283Z,35.37
2022-08-07T12:53:19.018Z,35.57
2022-08-07T12:56:12.361Z,35.36
2022-08-07T12:58:44.233Z,34.22
2022-08-07T13:01:19.347Z,34.33
2022-08-07T13:04:01.925Z,35.03
2022-08-07T13:07:00.379Z,33.98
2022-08-07T13:10:36.717Z,33.50
2022-08-07T13:12:58.419Z,33.98
2022-08-07T13:15:51.146Z,33.00
2022-08-07T13:18:28.363Z,32.68
2022-08-07T13:21:50.371Z,32.84
2022-08-07T13:24:29.436Z,33.20
2022-08-07T13:27:23.232Z,33.49
2022-08-07T13:30:19.115Z,33.30
2022-08-07T13:34:14.903Z,32.02
2022-08-07T13:36:17.785Z,33.13
2022-08-07T13:38:56.225Z,32.77
2022-08-07T13:41:42.548Z,34.29
2022-08-07T13:44:26.098Z,33.18
2022-08-07T13:46:57.976Z,33.44
2022-08-07T13:50:33.870Z,33.37
2022-08-07T13:52:33.552Z,33.94
2022-08-07T13:55:25.802Z,33.77
2022-08-07T13:58:28.180Z,32.90
2022-08-07T14:01:08.944Z,33.65
2022-08-07T14:04:05.652Z,32.67
2022-08-07T14:06:38.517Z,33.44
2022-08-07T14:09:07.270Z,32.82
2022-08-07T14:11:53.164Z,32.49
2022-08-07T14:14:31.328Z,32.29
2022-08-07T14:17:32.123Z,31.41
2022-08-07T14:20:39.813Z,32.52
2022-08-07T14:22:42.579Z,33.21
2022-08-07T14:25:15.429Z,31.86
2022-08-07T14:28:10.965Z,31.07
2022-08-07T14:30:40.494Z,31.84
2022-08-07T14:33:09.261Z,31.03
2022-08-07T14:35:44.710Z,30.30
2022-08-07T14:38:26.721Z,31.13
2022-08-07T14:41:04.999Z,31.03
2022-08-07T14:46:30.499Z,32.42
2022-08-07T14:49:00.242Z,33.38
2022-08-07T14:52:04.947Z,33.66
2022-08-07T14:54:42.124Z,34.21
2022-08-07T14:57:54.857Z,35.18
2022-08-07T15:00:06.631Z,34.77
2022-08-07T15:02:35.107Z,35.06
2022-08-07T15:05:19.665Z,35.34
2022-08-07T15:07:51.290Z,34.41
2022-08-07T15:10:26.039Z,35.24
2022-08-07T15:12:59.692Z,35.09
2022-08-07T15:15:38.897Z,34.87
2022-08-07T15:18:14.095Z,34.50
2022-08-07T15:21:08.334Z,34.38
2022-08-07T15:25:13.284Z,34.85
2022-08-07T15:26:35.412Z,35.18
2022-08-07T15:34:50.680Z,33.94
2022-08-07T15:38:04.645Z,34.79
2022-08-07T15:40:34.332Z,34.72
2022-08-07T15:43:53.661Z,35.23
2022-08-07T15:46:31.105Z,35.35
2022-08-07T15:49:12.027Z,36.01
2022-08-07T15:54:34.175Z,36.08
2022-08-07T15:57:02.894Z,36.49
2022-08-07T15:59:39.790Z,36.52
2022-08-07T16:02:22.739Z,36.06
2022-08-07T16:04:58.216Z,36.08
2022-08-07T16:08:33.326Z,36.38
2022-08-07T16:10:19.307Z,35.80
2022-08-07T16:13:17.788Z,36.39
2022-08-07T16:16:47.883Z,36.51
2022-08-07T16:19:21.127Z,35.99
2022-08-07T16:22:37.739Z,36.56
2022-08-07T16:25:54.169Z,36.97
2022-08-07T16:30:08.332Z,37.24
2022-08-07T16:32:05.996Z,37.40
2022-08-07T16:34:38.925Z,37.25
2022-08-07T16:38:05.922Z,37.47
2022-08-07T16:40:56.980Z,37.11
2022-08-07T16:44:02.296Z,37.01
2022-08-07T16:47:08.999Z,36.96
2022-08-07T16:50:28.842Z,36.57
2022-08-07T16:54:01.357Z,36.40
2022-08-07T16:56:29.401Z,36.64
2022-08-07T16:59:10.785Z,36.18
2022-08-07T17:02:02.849Z,36.43
2022-08-07T17:06:02.384Z,36.88
2022-08-07T17:07:58.152Z,35.06
2022-08-07T17:10:56.611Z,35.31
2022-08-07T17:14:18.607Z,35.01
2022-08-07T17:16:56.200Z,35.12
2022-08-07T17:20:02.252Z,34.88
2022-08-07T17:22:42.628Z,34.28
2022-08-07T17:25:48.004Z,34.38
2022-08-07T17:28:19.337Z,34.19
2022-08-07T17:31:16.604Z,34.26
2022-08-07T17:34:32.553Z,33.79
2022-08-07T17:36:57.737Z,33.90
2022-08-07T17:40:03.466Z,34.44
2022-08-07T17:42:59.194Z,34.66
2022-08-07T17:45:35.270Z,35.66
2022-08-07T17:48:31.078Z,36.12
2022-08-07T17:51:24.459Z,36.01
2022-08-07T17:54:29.600Z,35.94
2022-08-07T17:57:21.814Z,37.14
2022-08-07T17:59:56.097Z,38.00
2022-08-07T18:02:56.355Z,38.08
2022-08-07T18:06:02.818Z,39.24
2022-08-07T18:08:31.645Z,40.08
2022-08-07T18:12:06.915Z,40.42
2022-08-07T18:14:46.029Z,41.11
2022-08-07T18:18:39.936Z,41.84
2022-08-07T18:21:06.352Z,42.15
2022-08-07T18:23:43.498Z,42.67
2022-08-07T18:26:18.449Z,43.46
2022-08-07T18:29:02.426Z,43.41
2022-08-07T18:32:08.781Z,43.89
2022-08-07T18:35:01.655Z,44.37
2022-08-07T18:38:57.300Z,44.72
2022-08-07T18:40:56.376Z,45.43
2022-08-07T18:43:57.537Z,45.65
2022-08-07T18:46:51.154Z,45.42
2022-08-07T18:50:32.613Z,45.76
2022-08-07T18:52:56.758Z,46.26
2022-08-07T18:55:43.305Z,47.20
2022-08-07T18:58:37.311Z,47.44
2022-08-07T19:02:18.865Z,48.11
2022-08-07T19:04:28.184Z,47.51
2022-08-07T19:07:51.929Z,47.86
2022-08-07T19:10:31.442Z,48.55
2022-08-07T19:13:10.249Z,48.49
2022-08-07T19:16:43.206Z,48.96
2022-08-07T19:19:08.282Z,49.22
2022-08-07T19:22:04.622Z,49.65
2022-08-07T19:24:43.136Z,50.33
2022-08-07T19:28:30.584Z,50.45
2022-08-07T19:30:56.463Z,50.69
2022-08-07T19:33:01.647Z,51.03
2022-08-07T19:35:38.667Z,50.65
2022-08-07T19:38:15.898Z,51.02
2022-08-07T19:40:50.199Z,51.06
2022-08-07T19:43:43.943Z,51.57
2022-08-07T19:46:10.711Z,51.75
2022-08-07T19:48:42.878Z,52.11
2022-08-07T19:51:19.245Z,52.22
2022-08-07T19:54:33.747Z,52.68
2022-08-07T19:58:02.405Z,53.30
2022-08-07T19:59:41.214Z,53.44
2022-08-07T20:02:19.666Z,53.37
2022-08-07T20:04:50.145Z,53.67
2022-08-07T20:07:23.768Z,53.68
2022-08-07T20:10:35.062Z,53.84
2022-08-07T20:12:54.364Z,54.17
2022-08-07T20:15:32.973Z,54.18
2022-08-07T20:18:06.245Z,54.23
2022-08-07T20:20:41.756Z,54.26
2022-08-07T20:23:23.114Z,54.79
2022-08-07T20:26:04.415Z,55.00
2022-08-07T20:28:39.859Z,55.16
2022-08-07T20:31:21.037Z,55.29
2022-08-07T20:33:56.499Z,55.80
2022-08-07T20:36:27.201Z,55.87
2022-08-07T20:39:00.403Z,56.52
2022-08-07T20:41:37.962Z,56.42
2022-08-07T20:44:10.517Z,56.81
2022-08-07T20:46:44.662Z,57.04
2022-08-07T20:50:00.115Z,57.47
2022-08-07T20:52:00.016Z,57.42
2022-08-07T20:54:29.754Z,58.09
2022-08-07T20:57:03.696Z,58.03
2022-08-07T21:00:06.702Z,58.19
2022-08-07T21:02:41.778Z,57.95
2022-08-07T21:05:25.714Z,58.73
2022-08-07T21:08:35.061Z,58.86
2022-08-07T21:11:10.474Z,58.73
2022-08-07T21:13:57.410Z,59.37
2022-08-07T21:16:30.181Z,59.53
2022-08-07T21:18:57.750Z,59.85
2022-08-07T21:21:28.968Z,59.94
2022-08-07T21:24:16.714Z,59.63
2022-08-07T21:27:01.016Z,59.89
2022-08-07T21:29:33.816Z,60.56
2022-08-07T21:32:50.913Z,60.39
2022-08-07T21:35:34.572Z,61.40
2022-08-07T21:38:18.014Z,61.77
2022-08-07T21:41:00.312Z,61.50
2022-08-07T21:43:55.665Z,62.21
2022-08-07T21:46:37.858Z,62.08
2022-08-07T21:50:02.261Z,62.02
2022-08-07T21:52:37.194Z,62.12
2022-08-07T21:55:10.983Z,62.24
2022-08-07T21:58:09.215Z,62.13
2022-08-07T22:00:42.553Z,62.34
2022-08-07T22:03:31.252Z,61.97
2022-08-07T22:06:06.490Z,62.41
2022-08-07T22:08:50.040Z,62.38
2022-08-07T22:11:18.291Z,62.82
2022-08-07T22:13:54.883Z,62.83
2022-08-07T22:16:38.482Z,62.64
2022-08-07T22:19:27.068Z,63.20
2022-08-07T22:22:21.484Z,62.89
2022-08-07T22:25:18.431Z,63.35
2022-08-07T22:28:07.735Z,63.92
2022-08-07T22:31:09.933Z,63.56
2022-08-07T22:33:57.055Z,63.37
2022-08-07T22:36:53.164Z,63.52
2022-08-07T22:39:28.512Z,63.85
2022-08-07T22:42:18.838Z,63.98
2022-08-07T22:44:58.717Z,64.29
2022-08-07T22:47:49.439Z,63.66
2022-08-07T22:50:53.529Z,63.65
2022-08-07T22:54:06.685Z,63.95
2022-08-07T22:57:03.078Z,64.44
2022-08-07T22:59:46.966Z,65.42
2022-08-07T23:02:34.942Z,65.63
2022-08-07T23:06:08.220Z,65.19
2022-08-07T23:08:30.198Z,64.85
2022-08-07T23:11:22.872Z,65.53
2022-08-07T23:14:10.893Z,66.12
2022-08-07T23:17:00.453Z,66.30
2022-08-07T23:19:51.925Z,66.87
2022-08-07T23:22:55.446Z,66.23
2022-08-07T23:25:56.602Z,66.09
2022-08-07T23:28:54.689Z,66.25
2022-08-07T23:32:48.672Z,66.48
2022-08-07T23:34:23.629Z,67.22
2022-08-07T23:37:36.013Z,67.16
2022-08-07T23:40:26.381Z,67.38
2022-08-07T23:43:24.162Z,67.54
2022-08-07T23:46:10.544Z,67.21
2022-08-07T23:48:59.276Z,67.25
2022-08-07T23:52:59.895Z,68.03
2022-08-07T23:54:46.484Z,68.45
2022-08-07T23:57:34.954Z,67.36
